sensor_id;sensor_type;location;lat;lon;timestamp;P1;durP1;ratioP1;P2;durP2;ratioP2
22213;SDS011;11276;43.566;27.824;2022-08-21T00:02:16;19.63;;;13.40;;
22213;SDS011;11276;43.566;27.824;2022-08-21T00:04:45;20.43;;;15.50;;
22213;SDS011;11276;43.566;27.824;2022-08-21T00:07:12;22.80;;;13.80;;
22213;SDS011;11276;43.566;27.824;2022-08-21T00:09:39;21.67;;;14.50;;
22213;SDS011;11276;43.566;27.824;2022-08-21T00:12:07;20.53;;;14.27;;
22213;SDS011;11276;43.566;27.824;2022-08-21T00:14:34;20.33;;;14.63;;
22213;SDS011;11276;43.566;27.824;2022-08-21T00:17:01;18.67;;;14.47;;
22213;SDS011;11276;43.566;27.824;2022-08-21T00:19:29;21.40;;;14.03;;
22213;SDS011;11276;43.566;27.824;2022-08-21T00:21:56;23.60;;;14.13;;
22213;SDS011;11276;43.566;27.824;2022-08-21T00:24:24;21.23;;;14.10;;
22213;SDS011;11276;43.566;27.824;2022-08-21T00:26:51;17.77;;;13.90;;
22213;SDS011;11276;43.566;27.824;2022-08-21T00:29:18;19.80;;;13.93;;
22213;SDS011;11276;43.566;27.824;2022-08-21T00:31:45;25.50;;;14.70;;
22213;SDS011;11276;43.566;27.824;2022-08-21T00:34:13;24.00;;;13.90;;
22213;SDS011;11276;43.566;27.824;2022-08-21T00:36:40;21.00;;;14.20;;
22213;SDS011;11276;43.566;27.824;2022-08-21T00:39:07;18.43;;;14.23;;
22213;SDS011;11276;43.566;27.824;2022-08-21T00:41:35;26.57;;;14.97;;
22213;SDS011;11276;43.566;27.824;2022-08-21T00:44:08;23.40;;;15.93;;
22213;SDS011;11276;43.566;27.824;2022-08-21T00:46:37;28.03;;;16.53;;
22213;SDS011;11276;43.566;27.824;2022-08-21T00:49:05;21.60;;;16.20;;
22213;SDS011;11276;43.566;27.824;2022-08-21T00:51:38;31.70;;;17.27;;
22213;SDS011;11276;43.566;27.824;2022-08-21T00:54:08;37.03;;;19.00;;
22213;SDS011;11276;43.566;27.824;2022-08-21T00:56:36;31.77;;;17.97;;
22213;SDS011;11276;43.566;27.824;2022-08-21T00:59:03;32.60;;;18.23;;
22213;SDS011;11276;43.566;27.824;2022-08-21T01:01:33;32.30;;;17.60;;
22213;SDS011;11276;43.566;27.824;2022-08-21T01:04:00;28.60;;;17.33;;
22213;SDS011;11276;43.566;27.824;2022-08-21T01:06:27;28.80;;;17.13;;
22213;SDS011;11276;43.566;27.824;2022-08-21T01:08:54;30.20;;;17.50;;
22213;SDS011;11276;43.566;27.824;2022-08-21T01:11:21;24.30;;;17.10;;
22213;SDS011;11276;43.566;27.824;2022-08-21T01:13:48;22.60;;;17.63;;
22213;SDS011;11276;43.566;27.824;2022-08-21T01:16:16;27.40;;;16.87;;
22213;SDS011;11276;43.566;27.824;2022-08-21T01:18:46;30.80;;;18.53;;
22213;SDS011;11276;43.566;27.824;2022-08-21T01:21:24;29.00;;;15.80;;
22213;SDS011;11276;43.566;27.824;2022-08-21T01:23:53;21.33;;;16.20;;
22213;SDS011;11276;43.566;27.824;2022-08-21T01:26:22;31.50;;;19.07;;
22213;SDS011;11276;43.566;27.824;2022-08-21T01:29:16;22.43;;;15.50;;
22213;SDS011;11276;43.566;27.824;2022-08-21T01:31:42;24.80;;;16.97;;
22213;SDS011;11276;43.566;27.824;2022-08-21T01:34:09;24.20;;;16.30;;
22213;SDS011;11276;43.566;27.824;2022-08-21T01:36:37;24.30;;;16.77;;
22213;SDS011;11276;43.566;27.824;2022-08-21T01:39:04;27.27;;;17.17;;
22213;SDS011;11276;43.566;27.824;2022-08-21T01:41:31;27.90;;;17.67;;
22213;SDS011;11276;43.566;27.824;2022-08-21T01:43:58;32.60;;;16.60;;
22213;SDS011;11276;43.566;27.824;2022-08-21T01:46:25;44.63;;;17.67;;
22213;SDS011;11276;43.566;27.824;2022-08-21T01:48:52;34.83;;;19.23;;
22213;SDS011;11276;43.566;27.824;2022-08-21T01:51:18;41.00;;;20.47;;
22213;SDS011;11276;43.566;27.824;2022-08-21T01:53:45;44.77;;;22.67;;
22213;SDS011;11276;43.566;27.824;2022-08-21T01:56:13;41.67;;;23.13;;
22213;SDS011;11276;43.566;27.824;2022-08-21T01:58:42;45.07;;;23.80;;
22213;SDS011;11276;43.566;27.824;2022-08-21T02:01:10;50.17;;;23.17;;
22213;SDS011;11276;43.566;27.824;2022-08-21T02:03:37;41.37;;;22.20;;
22213;SDS011;11276;43.566;27.824;2022-08-21T02:06:05;43.30;;;22.10;;
22213;SDS011;11276;43.566;27.824;2022-08-21T02:08:33;38.77;;;20.70;;
22213;SDS011;11276;43.566;27.824;2022-08-21T02:11:00;35.87;;;20.47;;
22213;SDS011;11276;43.566;27.824;2022-08-21T02:13:27;31.50;;;20.37;;
22213;SDS011;11276;43.566;27.824;2022-08-21T02:15:54;31.87;;;19.50;;
22213;SDS011;11276;43.566;27.824;2022-08-21T02:18:21;32.90;;;18.17;;
22213;SDS011;11276;43.566;27.824;2022-08-21T02:20:48;29.67;;;18.53;;
22213;SDS011;11276;43.566;27.824;2022-08-21T02:23:15;29.30;;;18.10;;
22213;SDS011;11276;43.566;27.824;2022-08-21T02:25:42;35.70;;;19.33;;
22213;SDS011;11276;43.566;27.824;2022-08-21T02:28:10;32.13;;;19.53;;
22213;SDS011;11276;43.566;27.824;2022-08-21T02:30:43;26.60;;;18.57;;
22213;SDS011;11276;43.566;27.824;2022-08-21T02:33:12;32.87;;;20.40;;
22213;SDS011;11276;43.566;27.824;2022-08-21T02:35:40;38.77;;;22.00;;
22213;SDS011;11276;43.566;27.824;2022-08-21T02:38:09;38.93;;;21.00;;
22213;SDS011;11276;43.566;27.824;2022-08-21T02:40:40;37.90;;;21.40;;
22213;SDS011;11276;43.566;27.824;2022-08-21T02:43:09;42.57;;;21.70;;
22213;SDS011;11276;43.566;27.824;2022-08-21T02:45:36;45.13;;;23.07;;
22213;SDS011;11276;43.566;27.824;2022-08-21T02:48:06;40.67;;;22.13;;
22213;SDS011;11276;43.566;27.824;2022-08-21T02:50:42;47.13;;;25.13;;
22213;SDS011;11276;43.566;27.824;2022-08-21T02:53:14;48.33;;;24.40;;
22213;SDS011;11276;43.566;27.824;2022-08-21T02:55:46;41.60;;;23.50;;
22213;SDS011;11276;43.566;27.824;2022-08-21T02:58:16;45.63;;;24.50;;
22213;SDS011;11276;43.566;27.824;2022-08-21T03:00:44;41.07;;;21.97;;
22213;SDS011;11276;43.566;27.824;2022-08-21T03:03:11;41.77;;;24.37;;
22213;SDS011;11276;43.566;27.824;2022-08-21T03:05:40;47.83;;;26.03;;
22213;SDS011;11276;43.566;27.824;2022-08-21T03:08:07;48.67;;;24.97;;
22213;SDS011;11276;43.566;27.824;2022-08-21T03:10:38;43.00;;;25.67;;
22213;SDS011;11276;43.566;27.824;2022-08-21T03:13:07;47.07;;;25.00;;
22213;SDS011;11276;43.566;27.824;2022-08-21T03:15:34;39.70;;;24.67;;
22213;SDS011;11276;43.566;27.824;2022-08-21T03:18:01;51.53;;;26.67;;
22213;SDS011;11276;43.566;27.824;2022-08-21T03:20:30;45.53;;;25.90;;
22213;SDS011;11276;43.566;27.824;2022-08-21T03:22:58;50.13;;;24.87;;
22213;SDS011;11276;43.566;27.824;2022-08-21T03:25:26;43.97;;;24.90;;
22213;SDS011;11276;43.566;27.824;2022-08-21T03:27:54;46.83;;;24.97;;
22213;SDS011;11276;43.566;27.824;2022-08-21T03:30:23;49.93;;;25.50;;
22213;SDS011;11276;43.566;27.824;2022-08-21T03:32:50;44.23;;;23.77;;
22213;SDS011;11276;43.566;27.824;2022-08-21T03:35:17;48.80;;;27.50;;
22213;SDS011;11276;43.566;27.824;2022-08-21T03:37:45;53.00;;;27.00;;
22213;SDS011;11276;43.566;27.824;2022-08-21T03:40:14;55.20;;;27.60;;
22213;SDS011;11276;43.566;27.824;2022-08-21T03:42:42;48.37;;;25.70;;
22213;SDS011;11276;43.566;27.824;2022-08-21T03:45:14;46.40;;;24.97;;
22213;SDS011;11276;43.566;27.824;2022-08-21T03:50:19;49.70;;;27.10;;
22213;SDS011;11276;43.566;27.824;2022-08-21T03:52:46;49.67;;;26.40;;
22213;SDS011;11276;43.566;27.824;2022-08-21T03:55:12;51.93;;;27.67;;
22213;SDS011;11276;43.566;27.824;2022-08-21T03:57:39;51.17;;;26.37;;
22213;SDS011;11276;43.566;27.824;2022-08-21T04:00:07;47.50;;;26.97;;
22213;SDS011;11276;43.566;27.824;2022-08-21T04:02:37;48.10;;;26.93;;
22213;SDS011;11276;43.566;27.824;2022-08-21T04:05:05;53.77;;;27.50;;
22213;SDS011;11276;43.566;27.824;2022-08-21T04:07:33;54.57;;;29.07;;
22213;SDS011;11276;43.566;27.824;2022-08-21T04:10:00;51.67;;;28.93;;
22213;SDS011;11276;43.566;27.824;2022-08-21T04:12:27;55.37;;;29.17;;
22213;SDS011;11276;43.566;27.824;2022-08-21T04:14:54;52.27;;;30.17;;
22213;SDS011;11276;43.566;27.824;2022-08-21T04:17:20;50.40;;;27.57;;
22213;SDS011;11276;43.566;27.824;2022-08-21T04:19:47;54.13;;;29.63;;
22213;SDS011;11276;43.566;27.824;2022-08-21T04:22:18;61.93;;;29.90;;
22213;SDS011;11276;43.566;27.824;2022-08-21T04:24:45;48.00;;;29.30;;
22213;SDS011;11276;43.566;27.824;2022-08-21T04:27:11;47.40;;;28.07;;
22213;SDS011;11276;43.566;27.824;2022-08-21T04:29:38;60.10;;;30.40;;
22213;SDS011;11276;43.566;27.824;2022-08-21T04:32:05;61.10;;;31.53;;
22213;SDS011;11276;43.566;27.824;2022-08-21T04:34:32;55.07;;;28.97;;
22213;SDS011;11276;43.566;27.824;2022-08-21T04:36:59;50.80;;;30.50;;
22213;SDS011;11276;43.566;27.824;2022-08-21T04:39:26;60.83;;;29.50;;
22213;SDS011;11276;43.566;27.824;2022-08-21T04:41:53;51.50;;;27.90;;
22213;SDS011;11276;43.566;27.824;2022-08-21T04:44:19;45.00;;;26.80;;
22213;SDS011;11276;43.566;27.824;2022-08-21T04:46:46;52.27;;;26.30;;
22213;SDS011;11276;43.566;27.824;2022-08-21T04:49:13;49.27;;;26.10;;
22213;SDS011;11276;43.566;27.824;2022-08-21T04:51:39;46.60;;;26.50;;
22213;SDS011;11276;43.566;27.824;2022-08-21T04:54:11;47.30;;;26.50;;
22213;SDS011;11276;43.566;27.824;2022-08-21T04:56:44;46.60;;;27.90;;
22213;SDS011;11276;43.566;27.824;2022-08-21T04:59:17;43.83;;;26.20;;
22213;SDS011;11276;43.566;27.824;2022-08-21T05:01:48;39.80;;;24.10;;
22213;SDS011;11276;43.566;27.824;2022-08-21T05:04:18;43.30;;;24.97;;
22213;SDS011;11276;43.566;27.824;2022-08-21T05:06:50;36.53;;;23.03;;
22213;SDS011;11276;43.566;27.824;2022-08-21T05:09:19;41.43;;;22.70;;
22213;SDS011;11276;43.566;27.824;2022-08-21T05:11:49;37.13;;;22.13;;
22213;SDS011;11276;43.566;27.824;2022-08-21T05:14:18;34.53;;;22.47;;
22213;SDS011;11276;43.566;27.824;2022-08-21T05:16:46;28.10;;;19.80;;
22213;SDS011;11276;43.566;27.824;2022-08-21T05:19:13;28.00;;;18.70;;
22213;SDS011;11276;43.566;27.824;2022-08-21T05:21:42;33.53;;;18.70;;
22213;SDS011;11276;43.566;27.824;2022-08-21T05:24:10;27.50;;;18.23;;
22213;SDS011;11276;43.566;27.824;2022-08-21T05:26:37;28.30;;;17.67;;
22213;SDS011;11276;43.566;27.824;2022-08-21T05:29:05;28.37;;;17.60;;
22213;SDS011;11276;43.566;27.824;2022-08-21T05:31:34;29.70;;;18.10;;
22213;SDS011;11276;43.566;27.824;2022-08-21T05:34:01;32.30;;;18.60;;
22213;SDS011;11276;43.566;27.824;2022-08-21T05:36:28;32.07;;;20.10;;
22213;SDS011;11276;43.566;27.824;2022-08-21T05:38:54;31.60;;;18.80;;
22213;SDS011;11276;43.566;27.824;2022-08-21T05:41:21;29.20;;;18.50;;
22213;SDS011;11276;43.566;27.824;2022-08-21T05:43:48;36.60;;;19.60;;
22213;SDS011;11276;43.566;27.824;2022-08-21T05:46:15;30.87;;;19.70;;
22213;SDS011;11276;43.566;27.824;2022-08-21T05:48:42;32.13;;;19.00;;
22213;SDS011;11276;43.566;27.824;2022-08-21T05:51:10;31.80;;;18.43;;
22213;SDS011;11276;43.566;27.824;2022-08-21T05:53:39;39.60;;;20.90;;
22213;SDS011;11276;43.566;27.824;2022-08-21T05:56:08;30.03;;;19.43;;
22213;SDS011;11276;43.566;27.824;2022-08-21T05:58:36;32.87;;;21.43;;
22213;SDS011;11276;43.566;27.824;2022-08-21T06:01:03;38.70;;;21.23;;
22213;SDS011;11276;43.566;27.824;2022-08-21T06:03:32;32.03;;;19.83;;
22213;SDS011;11276;43.566;27.824;2022-08-21T06:06:01;33.13;;;18.37;;
22213;SDS011;11276;43.566;27.824;2022-08-21T06:08:29;29.70;;;17.47;;
22213;SDS011;11276;43.566;27.824;2022-08-21T06:10:56;26.17;;;16.90;;
22213;SDS011;11276;43.566;27.824;2022-08-21T06:13:25;33.10;;;17.57;;
22213;SDS011;11276;43.566;27.824;2022-08-21T06:16:12;28.43;;;15.47;;
22213;SDS011;11276;43.566;27.824;2022-08-21T06:18:41;26.20;;;16.50;;
22213;SDS011;11276;43.566;27.824;2022-08-21T06:21:09;22.53;;;14.50;;
22213;SDS011;11276;43.566;27.824;2022-08-21T06:23:35;24.30;;;12.83;;
22213;SDS011;11276;43.566;27.824;2022-08-21T06:26:03;19.47;;;11.10;;
22213;SDS011;11276;43.566;27.824;2022-08-21T06:28:32;17.63;;;11.23;;
22213;SDS011;11276;43.566;27.824;2022-08-21T06:30:59;17.90;;;11.30;;
22213;SDS011;11276;43.566;27.824;2022-08-21T06:33:26;18.90;;;10.17;;
22213;SDS011;11276;43.566;27.824;2022-08-21T06:35:55;20.60;;;11.27;;
22213;SDS011;11276;43.566;27.824;2022-08-21T06:38:22;20.40;;;9.80;;
22213;SDS011;11276;43.566;27.824;2022-08-21T06:40:49;16.83;;;9.10;;
22213;SDS011;11276;43.566;27.824;2022-08-21T06:43:16;13.80;;;8.90;;
22213;SDS011;11276;43.566;27.824;2022-08-21T06:45:43;13.40;;;8.50;;
22213;SDS011;11276;43.566;27.824;2022-08-21T06:48:10;11.57;;;7.43;;
22213;SDS011;11276;43.566;27.824;2022-08-21T06:50:40;13.93;;;8.53;;
22213;SDS011;11276;43.566;27.824;2022-08-21T06:53:09;16.83;;;8.00;;
22213;SDS011;11276;43.566;27.824;2022-08-21T06:55:39;12.43;;;8.03;;
22213;SDS011;11276;43.566;27.824;2022-08-21T06:58:06;9.43;;;7.40;;
22213;SDS011;11276;43.566;27.824;2022-08-21T07:00:34;15.30;;;6.83;;
22213;SDS011;11276;43.566;27.824;2022-08-21T07:03:04;12.13;;;6.20;;
22213;SDS011;11276;43.566;27.824;2022-08-21T07:05:31;6.50;;;5.30;;
22213;SDS011;11276;43.566;27.824;2022-08-21T07:07:58;7.87;;;5.93;;
22213;SDS011;11276;43.566;27.824;2022-08-21T07:10:25;6.53;;;5.30;;
22213;SDS011;11276;43.566;27.824;2022-08-21T07:12:52;9.13;;;5.63;;
22213;SDS011;11276;43.566;27.824;2022-08-21T07:15:21;9.23;;;5.10;;
22213;SDS011;11276;43.566;27.824;2022-08-21T07:17:48;10.03;;;4.70;;
22213;SDS011;11276;43.566;27.824;2022-08-21T07:20:14;8.90;;;5.10;;
22213;SDS011;11276;43.566;27.824;2022-08-21T07:22:41;9.30;;;5.70;;
22213;SDS011;11276;43.566;27.824;2022-08-21T07:25:08;6.30;;;4.37;;
22213;SDS011;11276;43.566;27.824;2022-08-21T07:27:35;9.40;;;4.27;;
22213;SDS011;11276;43.566;27.824;2022-08-21T07:30:03;7.70;;;4.20;;
22213;SDS011;11276;43.566;27.824;2022-08-21T07:32:30;9.93;;;4.27;;
22213;SDS011;11276;43.566;27.824;2022-08-21T07:34:57;11.23;;;4.77;;
22213;SDS011;11276;43.566;27.824;2022-08-21T07:37:24;8.10;;;5.40;;
22213;SDS011;11276;43.566;27.824;2022-08-21T07:39:51;5.60;;;4.43;;
22213;SDS011;11276;43.566;27.824;2022-08-21T07:42:18;7.30;;;5.00;;
22213;SDS011;11276;43.566;27.824;2022-08-21T07:44:45;14.37;;;4.73;;
22213;SDS011;11276;43.566;27.824;2022-08-21T07:47:11;12.37;;;4.83;;
22213;SDS011;11276;43.566;27.824;2022-08-21T07:49:38;8.87;;;4.70;;
22213;SDS011;11276;43.566;27.824;2022-08-21T07:52:05;14.40;;;4.80;;
22213;SDS011;11276;43.566;27.824;2022-08-21T07:54:32;12.77;;;5.67;;
22213;SDS011;11276;43.566;27.824;2022-08-21T07:57:00;9.63;;;5.43;;
22213;SDS011;11276;43.566;27.824;2022-08-21T07:59:27;14.50;;;5.30;;
22213;SDS011;11276;43.566;27.824;2022-08-21T08:01:54;11.37;;;5.73;;
22213;SDS011;11276;43.566;27.824;2022-08-21T08:04:21;11.50;;;4.90;;
22213;SDS011;11276;43.566;27.824;2022-08-21T08:06:51;14.40;;;5.43;;
22213;SDS011;11276;43.566;27.824;2022-08-21T08:09:17;15.50;;;4.67;;
22213;SDS011;11276;43.566;27.824;2022-08-21T08:11:44;7.60;;;4.20;;
22213;SDS011;11276;43.566;27.824;2022-08-21T08:14:11;7.60;;;5.10;;
22213;SDS011;11276;43.566;27.824;2022-08-21T08:16:38;21.30;;;6.10;;
22213;SDS011;11276;43.566;27.824;2022-08-21T08:19:04;9.17;;;4.90;;
22213;SDS011;11276;43.566;27.824;2022-08-21T08:21:32;7.67;;;5.30;;
22213;SDS011;11276;43.566;27.824;2022-08-21T08:24:00;21.20;;;5.50;;
22213;SDS011;11276;43.566;27.824;2022-08-21T08:26:27;15.50;;;5.73;;
22213;SDS011;11276;43.566;27.824;2022-08-21T08:28:53;9.57;;;4.90;;
22213;SDS011;11276;43.566;27.824;2022-08-21T08:31:20;7.00;;;4.77;;
22213;SDS011;11276;43.566;27.824;2022-08-21T08:33:47;10.37;;;5.43;;
22213;SDS011;11276;43.566;27.824;2022-08-21T08:36:15;10.97;;;4.70;;
22213;SDS011;11276;43.566;27.824;2022-08-21T08:38:43;9.33;;;5.37;;
22213;SDS011;11276;43.566;27.824;2022-08-21T08:41:12;6.57;;;4.90;;
22213;SDS011;11276;43.566;27.824;2022-08-21T08:43:42;8.63;;;4.70;;
22213;SDS011;11276;43.566;27.824;2022-08-21T08:46:16;7.90;;;4.63;;
22213;SDS011;11276;43.566;27.824;2022-08-21T08:48:59;9.20;;;5.07;;
22213;SDS011;11276;43.566;27.824;2022-08-21T08:54:04;8.80;;;4.43;;
22213;SDS011;11276;43.566;27.824;2022-08-21T08:56:35;9.03;;;4.90;;
22213;SDS011;11276;43.566;27.824;2022-08-21T08:59:05;13.33;;;5.50;;
22213;SDS011;11276;43.566;27.824;2022-08-21T09:01:37;19.40;;;5.80;;
22213;SDS011;11276;43.566;27.824;2022-08-21T09:04:05;12.43;;;5.10;;
22213;SDS011;11276;43.566;27.824;2022-08-21T09:09:25;10.57;;;6.30;;
22213;SDS011;11276;43.566;27.824;2022-08-21T09:11:59;9.80;;;6.23;;
22213;SDS011;11276;43.566;27.824;2022-08-21T09:14:31;10.37;;;5.97;;
22213;SDS011;11276;43.566;27.824;2022-08-21T09:23:01;10.50;;;5.80;;
22213;SDS011;11276;43.566;27.824;2022-08-21T09:25:51;10.70;;;5.57;;
22213;SDS011;11276;43.566;27.824;2022-08-21T09:28:31;8.87;;;5.10;;
22213;SDS011;11276;43.566;27.824;2022-08-21T09:30:59;9.60;;;5.90;;
22213;SDS011;11276;43.566;27.824;2022-08-21T09:33:29;15.23;;;6.23;;
22213;SDS011;11276;43.566;27.824;2022-08-21T09:35:56;9.00;;;5.77;;
22213;SDS011;11276;43.566;27.824;2022-08-21T09:38:33;12.33;;;5.73;;
22213;SDS011;11276;43.566;27.824;2022-08-21T09:41:05;7.17;;;5.13;;
22213;SDS011;11276;43.566;27.824;2022-08-21T09:43:34;8.60;;;6.00;;
22213;SDS011;11276;43.566;27.824;2022-08-21T09:46:08;11.60;;;6.13;;
22213;SDS011;11276;43.566;27.824;2022-08-21T09:48:48;8.60;;;5.17;;
22213;SDS011;11276;43.566;27.824;2022-08-21T09:51:19;10.30;;;5.07;;
22213;SDS011;11276;43.566;27.824;2022-08-21T09:53:49;9.60;;;5.50;;
22213;SDS011;11276;43.566;27.824;2022-08-21T09:56:26;15.43;;;5.67;;
22213;SDS011;11276;43.566;27.824;2022-08-21T09:59:15;12.77;;;6.30;;
22213;SDS011;11276;43.566;27.824;2022-08-21T10:01:53;10.93;;;5.10;;
22213;SDS011;11276;43.566;27.824;2022-08-21T10:04:27;9.13;;;4.60;;
22213;SDS011;11276;43.566;27.824;2022-08-21T10:07:09;9.83;;;5.63;;
22213;SDS011;11276;43.566;27.824;2022-08-21T10:09:39;7.40;;;5.07;;
22213;SDS011;11276;43.566;27.824;2022-08-21T10:17:58;13.03;;;5.00;;
22213;SDS011;11276;43.566;27.824;2022-08-21T10:21:02;10.63;;;4.87;;
22213;SDS011;11276;43.566;27.824;2022-08-21T10:26:35;8.63;;;4.70;;
22213;SDS011;11276;43.566;27.824;2022-08-21T10:30:14;10.93;;;5.17;;
22213;SDS011;11276;43.566;27.824;2022-08-21T10:32:24;15.13;;;5.70;;
22213;SDS011;11276;43.566;27.824;2022-08-21T10:35:17;18.17;;;5.80;;
22213;SDS011;11276;43.566;27.824;2022-08-21T10:37:52;9.10;;;5.10;;
22213;SDS011;11276;43.566;27.824;2022-08-21T10:40:30;14.33;;;5.50;;
22213;SDS011;11276;43.566;27.824;2022-08-21T10:48:58;8.57;;;5.57;;
22213;SDS011;11276;43.566;27.824;2022-08-21T10:51:38;12.30;;;6.10;;
22213;SDS011;11276;43.566;27.824;2022-08-21T10:54:17;12.97;;;6.40;;
22213;SDS011;11276;43.566;27.824;2022-08-21T10:57:11;9.37;;;6.57;;
22213;SDS011;11276;43.566;27.824;2022-08-21T10:59:49;12.93;;;6.40;;
22213;SDS011;11276;43.566;27.824;2022-08-21T11:02:26;11.40;;;6.23;;
22213;SDS011;11276;43.566;27.824;2022-08-21T11:05:17;16.33;;;6.60;;
22213;SDS011;11276;43.566;27.824;2022-08-21T11:08:01;12.87;;;5.43;;
22213;SDS011;11276;43.566;27.824;2022-08-21T11:10:40;11.40;;;5.97;;
22213;SDS011;11276;43.566;27.824;2022-08-21T11:13:14;9.80;;;6.20;;
22213;SDS011;11276;43.566;27.824;2022-08-21T11:16:05;21.90;;;7.30;;
22213;SDS011;11276;43.566;27.824;2022-08-21T11:18:50;13.57;;;6.20;;
22213;SDS011;11276;43.566;27.824;2022-08-21T11:23:59;11.70;;;6.90;;
22213;SDS011;11276;43.566;27.824;2022-08-21T11:26:42;12.60;;;7.10;;
22213;SDS011;11276;43.566;27.824;2022-08-21T11:29:11;9.87;;;6.03;;
22213;SDS011;11276;43.566;27.824;2022-08-21T11:31:50;12.73;;;6.50;;
22213;SDS011;11276;43.566;27.824;2022-08-21T11:34:46;12.97;;;6.70;;
22213;SDS011;11276;43.566;27.824;2022-08-21T11:45:09;16.70;;;6.90;;
22213;SDS011;11276;43.566;27.824;2022-08-21T11:50:21;12.80;;;6.77;;
22213;SDS011;11276;43.566;27.824;2022-08-21T11:55:37;21.93;;;9.03;;
22213;SDS011;11276;43.566;27.824;2022-08-21T11:58:12;18.47;;;7.23;;
22213;SDS011;11276;43.566;27.824;2022-08-21T12:00:47;9.83;;;6.70;;
22213;SDS011;11276;43.566;27.824;2022-08-21T12:03:36;22.60;;;8.47;;
22213;SDS011;11276;43.566;27.824;2022-08-21T12:06:07;17.67;;;8.10;;
22213;SDS011;11276;43.566;27.824;2022-08-21T12:08:37;25.83;;;8.60;;
22213;SDS011;11276;43.566;27.824;2022-08-21T12:16:42;11.20;;;6.40;;
22213;SDS011;11276;43.566;27.824;2022-08-21T12:26:57;11.67;;;6.50;;
22213;SDS011;11276;43.566;27.824;2022-08-21T12:29:43;12.80;;;6.90;;
22213;SDS011;11276;43.566;27.824;2022-08-21T12:34:42;10.90;;;6.67;;
22213;SDS011;11276;43.566;27.824;2022-08-21T12:37:17;14.23;;;6.60;;
22213;SDS011;11276;43.566;27.824;2022-08-21T12:39:51;10.50;;;7.23;;
22213;SDS011;11276;43.566;27.824;2022-08-21T12:42:22;13.10;;;6.90;;
22213;SDS011;11276;43.566;27.824;2022-08-21T12:45:02;11.40;;;6.67;;
22213;SDS011;11276;43.566;27.824;2022-08-21T12:47:33;11.40;;;7.00;;
22213;SDS011;11276;43.566;27.824;2022-08-21T12:50:19;15.17;;;7.23;;
22213;SDS011;11276;43.566;27.824;2022-08-21T12:52:55;15.43;;;7.50;;
22213;SDS011;11276;43.566;27.824;2022-08-21T12:55:28;14.40;;;8.03;;
22213;SDS011;11276;43.566;27.824;2022-08-21T12:57:59;14.90;;;7.37;;
22213;SDS011;11276;43.566;27.824;2022-08-21T13:00:28;14.47;;;7.70;;
22213;SDS011;11276;43.566;27.824;2022-08-21T13:02:55;14.00;;;7.50;;
22213;SDS011;11276;43.566;27.824;2022-08-21T13:05:35;18.27;;;7.77;;
22213;SDS011;11276;43.566;27.824;2022-08-21T13:08:04;15.70;;;7.53;;
22213;SDS011;11276;43.566;27.824;2022-08-21T13:10:33;19.33;;;8.10;;
22213;SDS011;11276;43.566;27.824;2022-08-21T13:13:05;15.00;;;7.67;;
22213;SDS011;11276;43.566;27.824;2022-08-21T13:15:36;15.90;;;7.50;;
22213;SDS011;11276;43.566;27.824;2022-08-21T13:18:05;13.40;;;8.37;;
22213;SDS011;11276;43.566;27.824;2022-08-21T13:20:38;12.57;;;7.50;;
22213;SDS011;11276;43.566;27.824;2022-08-21T13:25:54;18.27;;;8.50;;
22213;SDS011;11276;43.566;27.824;2022-08-21T13:28:22;11.17;;;6.73;;
22213;SDS011;11276;43.566;27.824;2022-08-21T13:30:50;14.47;;;7.17;;
22213;SDS011;11276;43.566;27.824;2022-08-21T13:33:21;15.00;;;7.00;;
22213;SDS011;11276;43.566;27.824;2022-08-21T13:35:52;14.80;;;7.17;;
22213;SDS011;11276;43.566;27.824;2022-08-21T13:38:24;15.10;;;7.17;;
22213;SDS011;11276;43.566;27.824;2022-08-21T13:40:57;14.37;;;7.30;;
22213;SDS011;11276;43.566;27.824;2022-08-21T13:43:30;10.70;;;6.60;;
22213;SDS011;11276;43.566;27.824;2022-08-21T13:45:59;14.70;;;6.87;;
22213;SDS011;11276;43.566;27.824;2022-08-21T13:48:30;12.83;;;7.07;;
22213;SDS011;11276;43.566;27.824;2022-08-21T13:51:00;11.53;;;7.00;;
22213;SDS011;11276;43.566;27.824;2022-08-21T13:53:36;12.30;;;6.57;;
22213;SDS011;11276;43.566;27.824;2022-08-21T13:58:52;13.23;;;6.90;;
22213;SDS011;11276;43.566;27.824;2022-08-21T14:01:22;16.40;;;7.03;;
22213;SDS011;11276;43.566;27.824;2022-08-21T14:03:53;12.50;;;7.57;;
22213;SDS011;11276;43.566;27.824;2022-08-21T14:06:27;11.50;;;6.20;;
22213;SDS011;11276;43.566;27.824;2022-08-21T14:09:00;17.77;;;6.73;;
22213;SDS011;11276;43.566;27.824;2022-08-21T14:11:34;16.20;;;7.10;;
22213;SDS011;11276;43.566;27.824;2022-08-21T14:14:04;12.93;;;7.20;;
22213;SDS011;11276;43.566;27.824;2022-08-21T14:16:44;15.70;;;6.43;;
22213;SDS011;11276;43.566;27.824;2022-08-21T14:19:20;11.43;;;7.93;;
22213;SDS011;11276;43.566;27.824;2022-08-21T14:21:47;15.80;;;7.40;;
22213;SDS011;11276;43.566;27.824;2022-08-21T14:24:38;12.17;;;7.33;;
22213;SDS011;11276;43.566;27.824;2022-08-21T14:27:06;13.50;;;7.47;;
22213;SDS011;11276;43.566;27.824;2022-08-21T14:29:36;18.10;;;7.43;;
22213;SDS011;11276;43.566;27.824;2022-08-21T14:32:12;15.70;;;7.53;;
22213;SDS011;11276;43.566;27.824;2022-08-21T14:34:41;9.23;;;6.37;;
22213;SDS011;11276;43.566;27.824;2022-08-21T14:37:08;10.93;;;6.80;;
22213;SDS011;11276;43.566;27.824;2022-08-21T14:39:34;11.30;;;7.13;;
22213;SDS011;11276;43.566;27.824;2022-08-21T14:42:01;15.90;;;6.80;;
22213;SDS011;11276;43.566;27.824;2022-08-21T14:44:28;10.83;;;6.37;;
22213;SDS011;11276;43.566;27.824;2022-08-21T14:46:55;15.03;;;6.83;;
22213;SDS011;11276;43.566;27.824;2022-08-21T14:49:23;15.73;;;6.10;;
22213;SDS011;11276;43.566;27.824;2022-08-21T14:51:52;15.10;;;6.80;;
22213;SDS011;11276;43.566;27.824;2022-08-21T14:54:26;11.10;;;6.00;;
22213;SDS011;11276;43.566;27.824;2022-08-21T14:56:55;11.00;;;6.63;;
22213;SDS011;11276;43.566;27.824;2022-08-21T14:59:23;13.60;;;6.57;;
22213;SDS011;11276;43.566;27.824;2022-08-21T15:01:52;13.13;;;6.90;;
22213;SDS011;11276;43.566;27.824;2022-08-21T15:04:19;14.83;;;6.83;;
22213;SDS011;11276;43.566;27.824;2022-08-21T15:06:46;16.20;;;6.90;;
22213;SDS011;11276;43.566;27.824;2022-08-21T15:09:12;12.10;;;6.50;;
22213;SDS011;11276;43.566;27.824;2022-08-21T15:11:39;10.67;;;6.23;;
22213;SDS011;11276;43.566;27.824;2022-08-21T15:14:08;14.53;;;6.83;;
22213;SDS011;11276;43.566;27.824;2022-08-21T15:16:42;12.60;;;6.13;;
22213;SDS011;11276;43.566;27.824;2022-08-21T15:19:08;9.90;;;6.17;;
22213;SDS011;11276;43.566;27.824;2022-08-21T15:21:35;11.67;;;6.40;;
22213;SDS011;11276;43.566;27.824;2022-08-21T15:24:02;15.97;;;6.80;;
22213;SDS011;11276;43.566;27.824;2022-08-21T15:26:29;16.40;;;7.00;;
22213;SDS011;11276;43.566;27.824;2022-08-21T15:28:56;10.73;;;6.30;;
22213;SDS011;11276;43.566;27.824;2022-08-21T15:31:25;12.00;;;6.70;;
22213;SDS011;11276;43.566;27.824;2022-08-21T15:33:51;11.53;;;6.73;;
22213;SDS011;11276;43.566;27.824;2022-08-21T15:36:18;13.07;;;8.10;;
22213;SDS011;11276;43.566;27.824;2022-08-21T15:38:45;19.47;;;7.20;;
22213;SDS011;11276;43.566;27.824;2022-08-21T15:41:12;14.03;;;7.03;;
22213;SDS011;11276;43.566;27.824;2022-08-21T15:43:45;12.17;;;6.80;;